A80 TRACON Summary / KATL TAF
ATL TRACON Summary:
A strong cold front has pushed southeast through ATL over night, expect mostly VFR conditions with surface winds from the northwest at 15-25kts with 25-35kt for most of the day. Expect LGT ocnl MOD rime/mixed icing above 060 in the TRACON airspace. Also expect LGT-MOD turbulence below 100 and LLWS in the TRACON airspace.

Updated:11/1/2014 6:45 AM
ATL Terminal Aerodrome Forecast:

FTUS80 KATL 011215 AAA
KATL 011214Z 0112/0218 32020G30KT P6SM BKN030 WS020/34050KT
     FM011600 32022G35KT P6SM BKN040 WS020/34050KT
     FM012000 32020G32KT P6SM SCT040 WS020/34050KT
     FM020000 33015G25KT P6SM SCT070
     FM020600 32012KT P6SM SKC
     FM021700 34008KT P6SM SKC
ATL TRACON Area Remark:
NONE.
Convective Gate Forecast / Icing Gate Forecast / Vertical Wind Profile (click on image to enlarge)
Convective Gate Forecast
Icing Gate Forecast
table with gate forecasts (convective and CCFP) used April - November while icing gate forecasts are issued
AIRMETs & SIGMETS/ Southeast Radar loop / Satellite Image (click on image to enlarge)

Southeast Radar Loop

 



USA.gov is the U.S. government's official web portal to all federal, state and local government web resources and services.